Главная страница
METAR-TAF:

METAR-TAF

Аэропорты :

Исламабад, Пакистан

широта: 33-37N, долгота: 073-06E, высота над уровнем моря: 507 м

Текущие метеонаблюдения

Эта сводка был подготовлена 19 минут назад, в 03:40 UTC
Штиль
Температура 6°C
Влажность 81%
Давление 1016 hPa
Видимость: 1000 м
дымка

METAR: OPRN 240340Z 00000KT 1000 BR NSC 06/03 Q1016 A30.02 BECMG 1100

Время: 08:59 (03:59 UTC)

Прогноз

Эта сводка был подготовлена 6 часа и 29 минут назад, в 21:30 UTC
Прогноз действительный с 24-го 00 UTC до 25-го 06 UTC
Ветер 10 Узел от западный-юго-западный
Видимость: 3000 м
дымка
временами
С 24-го 03 UTC до 24-го 06 UTC
Видимость: 1500 м
дымка
изменения
С 24-го 06 UTC до 24-го 08 UTC
Видимость: 4000 м
мгла
временами
С 25-го 03 UTC до 25-го 06 UTC
дымка

TAF: OPRN 232130Z 2400/2506 25010KT 3000 BR NSC TEMPO 2403/2406 1500 BR BECMG 2406/2408 4000 HZ TEMPO 2503/2506 150 BR

Метеонаблюдения и прогнозы для более 4000 аэропортов (сводки METAR и TAF).

Имеющиеся станции представлены на карте желтыми и красными точками.

Чтобы увидеть название станции, наведите на нее мышь.

Затем щелкните, чтобы увидеть метеонаблюдения и метеопрогнозы.

Управление картой: чтобы увеличить масштаб, щелкните зеленые кнопки с черным крестиком; чтобы уменьшить масштаб, щелкните зеленую кнопку с тире; для просмотра соседних карт щелкайте зеленые стрелки.


METAR-TAF: